createdAt,value
2022-10-15T00:01:56.021Z,94.57
2022-10-15T00:06:47.697Z,95.37
2022-10-15T00:11:40.402Z,95.81
2022-10-15T00:16:33.636Z,96.35
2022-10-15T00:21:25.853Z,97.02
2022-10-15T00:26:21.929Z,98.12
2022-10-15T00:31:16.207Z,98.39
2022-10-15T00:36:14.337Z,98.79
2022-10-15T00:41:07.999Z,98.47
2022-10-15T00:45:59.652Z,98.74
2022-10-15T00:50:51.288Z,99.82
2022-10-15T00:55:43.913Z,99.95
2022-10-15T01:00:36.009Z,100.00
2022-10-15T01:05:28.721Z,100.00
2022-10-15T01:10:21.758Z,100.00
2022-10-15T01:15:28.714Z,100.00
2022-10-15T01:20:26.014Z,100.00
2022-10-15T01:25:23.743Z,100.00
2022-10-15T01:30:50.917Z,100.00
2022-10-15T01:35:50.402Z,100.00
2022-10-15T01:40:51.552Z,100.00
2022-10-15T01:45:52.975Z,100.00
2022-10-15T01:50:48.687Z,100.00
2022-10-15T01:55:44.159Z,100.00
2022-10-15T02:00:35.860Z,100.00
2022-10-15T02:05:35.570Z,100.00
2022-10-15T02:10:48.668Z,100.00
2022-10-15T02:16:02.496Z,100.00
2022-10-15T02:21:03.384Z,100.00
2022-10-15T02:25:56.693Z,100.00
2022-10-15T02:30:52.930Z,100.00
2022-10-15T02:35:46.780Z,100.00
2022-10-15T02:40:40.696Z,100.00
2022-10-15T02:45:32.454Z,100.00
2022-10-15T02:50:24.226Z,100.00
2022-10-15T02:55:15.994Z,100.00
2022-10-15T03:00:08.488Z,100.00
2022-10-15T03:05:00.212Z,100.00
2022-10-15T03:09:51.895Z,100.00
2022-10-15T03:14:43.531Z,100.00
2022-10-15T03:19:36.147Z,100.00
2022-10-15T03:24:27.901Z,100.00
2022-10-15T03:29:19.608Z,100.00
2022-10-15T03:34:11.271Z,100.00
2022-10-15T03:39:03.081Z,100.00
2022-10-15T03:43:54.715Z,100.00
2022-10-15T03:48:50.244Z,100.00
2022-10-15T03:53:41.848Z,100.00
2022-10-15T03:58:33.646Z,100.00
2022-10-15T04:03:25.359Z,100.00
2022-10-15T04:08:17.123Z,100.00
2022-10-15T04:13:08.745Z,100.00
2022-10-15T04:18:00.333Z,100.00
2022-10-15T04:22:52.049Z,100.00
2022-10-15T04:27:43.751Z,100.00
2022-10-15T04:32:35.623Z,100.00
2022-10-15T04:37:27.284Z,100.00
2022-10-15T04:42:19.010Z,100.00
2022-10-15T04:47:11.031Z,100.00
2022-10-15T04:52:02.762Z,100.00
2022-10-15T04:56:54.568Z,100.00
2022-10-15T05:01:46.215Z,100.00
2022-10-15T05:06:38.193Z,100.00
2022-10-15T05:11:29.982Z,100.00
2022-10-15T05:16:25.059Z,100.00
2022-10-15T05:21:17.723Z,100.00
2022-10-15T05:26:13.342Z,100.00
2022-10-15T05:31:07.693Z,100.00
2022-10-15T05:36:28.364Z,100.00
2022-10-15T05:41:20.638Z,100.00
2022-10-15T05:46:12.237Z,100.00
2022-10-15T05:51:09.041Z,100.00
2022-10-15T05:56:00.729Z,100.00
2022-10-15T06:00:57.309Z,100.00
2022-10-15T06:05:49.188Z,100.00
2022-10-15T06:10:40.900Z,100.00
2022-10-15T06:15:33.582Z,100.00
2022-10-15T06:20:25.432Z,100.00
2022-10-15T06:25:17.147Z,100.00
2022-10-15T06:30:09.383Z,100.00
2022-10-15T06:35:01.022Z,99.79
2022-10-15T06:39:52.724Z,99.71
2022-10-15T06:44:44.320Z,99.75
2022-10-15T06:49:36.148Z,99.49
2022-10-15T06:54:27.868Z,100.00
2022-10-15T06:59:19.806Z,99.87
2022-10-15T07:04:11.582Z,100.00
2022-10-15T07:09:04.350Z,100.00
2022-10-15T07:13:58.100Z,100.00
2022-10-15T07:18:49.998Z,100.00
2022-10-15T07:23:41.664Z,100.00
2022-10-15T07:28:33.438Z,100.00
2022-10-15T07:33:25.183Z,100.00
2022-10-15T07:38:18.082Z,100.00
2022-10-15T07:43:09.775Z,100.00
2022-10-15T07:48:01.680Z,100.00
2022-10-15T07:52:53.453Z,100.00
2022-10-15T07:57:45.184Z,100.00
2022-10-15T08:02:36.914Z,95.83
2022-10-15T08:07:28.633Z,97.62
2022-10-15T08:12:20.547Z,96.22
2022-10-15T08:17:12.315Z,93.64
2022-10-15T08:22:04.015Z,88.79
2022-10-15T08:26:57.771Z,86.96
2022-10-15T08:31:49.567Z,85.22
2022-10-15T08:36:41.359Z,85.26
2022-10-15T08:41:40.496Z,83.45
2022-10-15T08:46:39.652Z,86.22
2022-10-15T08:51:46.617Z,81.53
2022-10-15T08:56:43.280Z,77.49
2022-10-15T09:01:43.659Z,77.90
2022-10-15T09:06:38.526Z,76.20
2022-10-15T09:11:42.286Z,74.91
2022-10-15T09:16:38.470Z,75.07
2022-10-15T09:21:32.289Z,74.95
2022-10-15T09:26:39.267Z,72.74
2022-10-15T09:31:40.542Z,72.80
2022-10-15T09:36:46.501Z,69.72
2022-10-15T09:42:16.426Z,68.60
2022-10-15T09:47:24.780Z,68.32
2022-10-15T09:52:38.357Z,64.38
2022-10-15T09:57:33.337Z,63.69
2022-10-15T10:02:26.746Z,63.96
2022-10-15T10:07:37.593Z,65.83
2022-10-15T10:12:34.106Z,62.38
2022-10-15T10:17:30.464Z,63.40
2022-10-15T10:22:22.351Z,61.18
2022-10-15T10:27:28.340Z,59.00
2022-10-15T10:32:23.689Z,59.83
2022-10-15T10:37:15.674Z,59.64
2022-10-15T10:42:24.904Z,56.23
2022-10-15T10:47:16.733Z,57.83
2022-10-15T10:52:20.843Z,58.56
2022-10-15T10:57:15.842Z,59.51
2022-10-15T11:02:13.266Z,60.88
2022-10-15T11:07:09.917Z,61.43
2022-10-15T11:12:10.656Z,62.13
2022-10-15T11:17:20.019Z,61.96
2022-10-15T11:22:39.603Z,61.43
2022-10-15T11:27:59.213Z,60.36
2022-10-15T11:33:12.523Z,58.48
2022-10-15T11:38:29.664Z,55.83
2022-10-15T11:43:40.053Z,54.16
2022-10-15T11:48:40.327Z,54.67
2022-10-15T11:53:31.843Z,53.41
2022-10-15T11:58:54.938Z,54.51
2022-10-15T12:03:58.681Z,55.82
2022-10-15T12:08:52.462Z,54.06
2022-10-15T12:13:56.299Z,53.14
2022-10-15T12:19:06.742Z,52.97
2022-10-15T12:23:58.518Z,52.90
2022-10-15T12:28:53.355Z,52.69
2022-10-15T12:33:50.232Z,52.84
2022-10-15T12:38:52.176Z,53.73
2022-10-15T12:43:52.919Z,53.64
2022-10-15T12:48:46.832Z,54.14
2022-10-15T12:53:42.972Z,55.28
2022-10-15T12:58:37.510Z,56.27
2022-10-15T13:03:38.089Z,56.79
2022-10-15T13:08:31.497Z,55.49
2022-10-15T13:13:27.405Z,55.56
2022-10-15T13:18:22.591Z,54.84
2022-10-15T13:23:29.679Z,56.22
2022-10-15T13:28:34.604Z,53.63
2022-10-15T13:33:27.109Z,52.41
2022-10-15T13:38:25.363Z,53.49
2022-10-15T13:43:22.743Z,54.46
2022-10-15T13:48:22.146Z,55.13
2022-10-15T13:53:27.187Z,53.80
2022-10-15T13:58:26.649Z,56.05
2022-10-15T14:03:22.634Z,55.14
2022-10-15T14:08:19.422Z,54.31
2022-10-15T14:13:11.606Z,54.20
2022-10-15T14:18:03.670Z,53.32
2022-10-15T14:22:55.614Z,54.83
2022-10-15T14:27:47.362Z,51.67
2022-10-15T14:32:52.118Z,51.29
2022-10-15T14:37:43.845Z,49.30
2022-10-15T14:43:01.650Z,49.68
2022-10-15T14:47:58.739Z,50.57
2022-10-15T14:52:53.080Z,51.06
2022-10-15T14:57:45.984Z,51.24
2022-10-15T15:02:37.803Z,52.06
2022-10-15T15:07:29.540Z,51.10
2022-10-15T15:12:27.879Z,50.71
2022-10-15T15:17:23.061Z,51.34
2022-10-15T15:22:18.861Z,52.34
2022-10-15T15:27:23.262Z,51.84
2022-10-15T15:32:15.953Z,52.42
2022-10-15T15:37:36.717Z,52.43
2022-10-15T15:42:28.603Z,52.01
2022-10-15T15:47:20.476Z,52.90
2022-10-15T15:52:18.873Z,53.56
2022-10-15T15:57:11.170Z,54.46
2022-10-15T16:02:02.863Z,54.75
2022-10-15T16:06:54.795Z,55.39
2022-10-15T16:11:46.422Z,56.35
2022-10-15T16:16:38.313Z,57.67
2022-10-15T16:21:30.063Z,58.64
2022-10-15T16:26:22.070Z,58.71
2022-10-15T16:31:15.233Z,59.76
2022-10-15T16:36:07.074Z,60.50
2022-10-15T16:40:58.890Z,60.84
2022-10-15T16:46:00.344Z,61.60
2022-10-15T16:51:10.773Z,62.41
2022-10-15T16:56:05.056Z,63.49
2022-10-15T17:01:00.900Z,63.78
2022-10-15T17:06:00.405Z,64.84
2022-10-15T17:10:52.229Z,66.32
2022-10-15T17:15:43.868Z,66.06
2022-10-15T17:20:43.716Z,66.46
2022-10-15T17:25:36.281Z,67.11
2022-10-15T17:30:28.005Z,67.79
2022-10-15T17:35:21.117Z,68.31
2022-10-15T17:40:13.654Z,68.64
2022-10-15T17:45:05.684Z,68.71
2022-10-15T17:49:57.499Z,69.26
2022-10-15T17:54:49.254Z,69.34
2022-10-15T17:59:40.885Z,70.40
2022-10-15T18:04:32.527Z,70.27
2022-10-15T18:09:28.304Z,70.50
2022-10-15T18:14:21.971Z,71.46
2022-10-15T18:19:14.237Z,72.35
2022-10-15T18:24:06.018Z,72.63
2022-10-15T18:30:13.608Z,74.64
2022-10-15T18:36:15.974Z,76.09
2022-10-15T18:41:55.582Z,76.48
2022-10-15T18:46:47.536Z,77.72
2022-10-15T18:56:45.518Z,76.75
2022-10-15T19:21:31.273Z,77.63
2022-10-15T19:26:23.036Z,77.52
2022-10-15T19:31:36.463Z,77.97
2022-10-15T19:36:34.264Z,78.23
2022-10-15T19:41:25.859Z,78.07
2022-10-15T19:46:17.664Z,77.81
2022-10-15T19:51:09.266Z,75.83
2022-10-15T19:56:03.848Z,75.95
2022-10-15T20:00:55.436Z,75.02
2022-10-15T20:05:47.436Z,75.29
2022-10-15T20:10:44.584Z,75.15
2022-10-15T20:15:40.968Z,75.14
2022-10-15T20:20:36.317Z,75.38
2022-10-15T20:25:27.893Z,76.19
2022-10-15T20:30:21.324Z,76.25
2022-10-15T20:35:13.326Z,77.08
2022-10-15T20:40:05.622Z,76.87
2022-10-15T20:44:57.299Z,77.25
2022-10-15T20:49:52.622Z,77.26
2022-10-15T20:54:44.588Z,77.56
2022-10-15T20:59:36.758Z,78.88
2022-10-15T21:04:28.377Z,79.61
2022-10-15T21:09:20.115Z,80.16
2022-10-15T21:14:13.626Z,80.70
2022-10-15T21:19:05.346Z,80.92
2022-10-15T21:23:58.236Z,81.20
2022-10-15T21:28:58.347Z,81.82
2022-10-15T21:33:50.281Z,81.72
2022-10-15T21:38:42.571Z,81.79
2022-10-15T21:43:34.943Z,81.37
2022-10-15T21:48:27.398Z,81.67
2022-10-15T21:53:19.296Z,82.47
2022-10-15T21:58:10.981Z,83.22
2022-10-15T22:03:02.613Z,83.14
2022-10-15T22:07:54.491Z,83.03
2022-10-15T22:12:52.181Z,82.44
2022-10-15T22:17:43.943Z,81.96
2022-10-15T22:22:35.546Z,81.79
2022-10-15T22:27:27.431Z,80.72
2022-10-15T22:32:19.145Z,79.79
2022-10-15T22:37:10.746Z,79.33
2022-10-15T22:42:02.408Z,78.99
2022-10-15T22:46:54.003Z,78.64
2022-10-15T22:51:45.848Z,78.09
2022-10-15T22:56:38.100Z,77.27
2022-10-15T23:01:32.052Z,77.25
2022-10-15T23:06:25.865Z,77.68
2022-10-15T23:11:21.526Z,77.64
2022-10-15T23:16:19.628Z,77.96
2022-10-15T23:21:18.610Z,78.99
2022-10-15T23:26:15.579Z,79.50
2022-10-15T23:31:07.440Z,80.08
2022-10-15T23:36:02.472Z,80.69
2022-10-15T23:41:08.665Z,80.63
2022-10-15T23:46:00.829Z,81.32
2022-10-15T23:50:52.692Z,81.10
2022-10-15T23:55:44.741Z,81.38
